Time;durP1;ratioP1;P1;durP2;ratioP2;P2;SDS_P1;SDS_P2;PMS_P1;PMS_P2;Temp;Humidity;BMP_temperature;BMP_pressure;BME280_temperature;BME280_humidity;BME280_pressure;Samples;Min_cycle;Max_cycle;Signal;HPM_P1;HPM_P2
2023/10/06 00:02:30;;;;;;;25.25;17.02;;;13.70;99.90;;;;;;5078916;28;19915;-75
2023/10/06 00:05:17;;;;;;;21.40;15.15;;;13.60;99.90;;;;;;5060426;28;20480;-75
2023/10/06 00:08:17;;;;;;;29.23;14.13;;;13.70;99.90;;;;;;5077050;28;20058;-76
2023/10/06 00:11:15;;;;;;;24.70;16.08;;;13.70;99.90;;;;;;5099050;28;20035;-75
2023/10/06 00:14:01;;;;;;;22.73;14.73;;;13.70;99.90;;;;;;5081936;28;20035;-75
2023/10/06 00:16:49;;;;;;;24.60;15.60;;;13.60;99.90;;;;;;5095365;28;20043;-75
2023/10/06 00:19:37;;;;;;;;;;;13.70;99.90;;;;;;5080896;28;20118;-75
2023/10/06 00:22:26;;;;;;;26.13;15.73;;;13.70;99.90;;;;;;5102376;27;20243;-75
2023/10/06 00:25:12;;;;;;;22.80;15.02;;;13.70;99.90;;;;;;5101347;28;20468;-75
2023/10/06 00:28:00;;;;;;;21.65;15.55;;;13.70;99.90;;;;;;5066236;28;20047;-75
2023/10/06 00:30:56;;;;;;;24.40;14.15;;;13.60;99.90;;;;;;5077657;27;20040;-75
2023/10/06 00:33:43;;;;;;;22.77;14.77;;;13.60;99.90;;;;;;5088301;28;20092;-75
2023/10/06 00:36:29;;;;;;;25.27;14.27;;;13.60;99.90;;;;;;5077923;27;20111;-75
2023/10/06 00:39:17;;;;;;;23.30;13.48;;;13.60;99.90;;;;;;5100930;28;20479;-75
2023/10/06 00:42:06;;;;;;;26.20;15.00;;;13.60;99.90;;;;;;5088701;27;20047;-75
2023/10/06 00:44:53;;;;;;;24.65;13.95;;;13.50;99.90;;;;;;5072018;28;20375;-75
2023/10/06 00:47:39;;;;;;;21.05;13.30;;;13.60;99.90;;;;;;5091814;28;20049;-75
2023/10/06 00:50:32;;;;;;;21.33;12.68;;;13.60;99.90;;;;;;5076059;28;20097;-75
2023/10/06 00:53:20;;;;;;;21.40;12.90;;;13.60;99.90;;;;;;5090175;28;20376;-75
2023/10/06 00:56:15;;;;;;;20.40;12.35;;;13.60;99.90;;;;;;5082646;27;20062;-75
2023/10/06 00:59:08;;;;;;;25.30;13.18;;;13.60;99.90;;;;;;5069027;28;20119;-75
2023/10/06 01:01:55;;;;;;;22.20;12.32;;;13.60;99.90;;;;;;5102518;27;20046;-75
2023/10/06 01:04:45;;;;;;;19.38;11.55;;;13.50;99.90;;;;;;5085154;28;20108;-76
2023/10/06 01:07:31;;;;;;;20.70;12.15;;;13.60;99.90;;;;;;5084743;27;20459;-75
2023/10/06 01:10:18;;;;;;;18.65;11.68;;;13.60;99.90;;;;;;5071182;28;20082;-75
2023/10/06 01:13:14;;;;;;;21.25;11.77;;;13.50;99.90;;;;;;5085262;28;20036;-75
2023/10/06 01:16:01;;;;;;;16.70;11.00;;;13.50;99.90;;;;;;5093154;27;20043;-75
2023/10/06 01:18:50;;;;;;;21.02;10.80;;;13.50;99.90;;;;;;5087875;28;20043;-76
2023/10/06 01:21:40;;;;;;;20.60;11.40;;;13.40;99.90;;;;;;5083003;27;20112;-76
2023/10/06 01:24:26;;;;;;;23.00;11.38;;;13.40;99.90;;;;;;5081041;28;20056;-76
2023/10/06 01:27:12;;;;;;;20.02;10.25;;;13.30;99.90;;;;;;5072942;28;20067;-76
2023/10/06 01:30:31;;;;;;;20.60;11.13;;;13.30;99.90;;;;;;5084576;27;20039;-76
2023/10/06 01:33:10;;;;;;;17.67;11.05;;;13.30;99.90;;;;;;5091608;27;20460;-76
2023/10/06 01:35:59;;;;;;;19.90;10.43;;;13.30;99.90;;;;;;5103174;28;20499;-76
2023/10/06 01:38:45;;;;;;;18.60;10.63;;;13.20;99.90;;;;;;5091092;28;20464;-76
2023/10/06 01:41:37;;;;;;;18.35;10.35;;;13.20;99.90;;;;;;5067041;27;20298;-76
2023/10/06 01:44:23;;;;;;;18.73;9.73;;;13.30;99.90;;;;;;5069977;28;20346;-76
2023/10/06 01:47:09;;;;;;;17.42;9.60;;;13.20;99.90;;;;;;5088223;27;20039;-76
2023/10/06 01:49:57;;;;;;;17.50;9.95;;;13.20;99.90;;;;;;5084477;28;20084;-76
2023/10/06 01:52:43;;;;;;;17.55;9.82;;;13.20;99.90;;;;;;5078594;27;20082;-76
2023/10/06 01:55:29;;;;;;;19.25;9.35;;;13.20;99.90;;;;;;5075183;28;20035;-76
2023/10/06 01:58:15;;;;;;;15.85;8.98;;;13.10;99.90;;;;;;5083275;28;20070;-76
2023/10/06 02:01:05;;;;;;;17.63;8.68;;;13.10;99.90;;;;;;5061870;27;20412;-76
2023/10/06 02:03:51;;;;;;;18.10;9.98;;;13.10;99.90;;;;;;5099835;28;20035;-76
2023/10/06 02:06:38;;;;;;;17.85;9.20;;;13.10;99.90;;;;;;5112580;27;20052;-76
2023/10/06 02:09:25;;;;;;;16.23;8.98;;;13.10;99.90;;;;;;5072986;28;20127;-76
2023/10/06 02:12:12;;;;;;;14.85;8.50;;;13.00;99.90;;;;;;5081493;28;20582;-76
2023/10/06 02:14:58;;;;;;;16.90;8.88;;;13.00;99.90;;;;;;5090270;27;20047;-76
2023/10/06 02:17:44;;;;;;;17.98;8.23;;;12.90;99.90;;;;;;5073536;28;20364;-76
2023/10/06 02:20:30;;;;;;;13.60;8.02;;;12.90;99.90;;;;;;5086744;27;20039;-76
2023/10/06 02:23:16;;;;;;;13.38;8.25;;;12.90;99.90;;;;;;5066987;28;20135;-75
2023/10/06 02:26:06;;;;;;;18.92;7.82;;;12.90;99.90;;;;;;5093960;28;20051;-76
2023/10/06 02:28:54;;;;;;;14.68;7.60;;;12.80;99.90;;;;;;5065027;27;20070;-76
2023/10/06 02:31:41;;;;;;;13.18;7.03;;;12.80;99.90;;;;;;5082242;28;20044;-75
2023/10/06 02:34:35;;;;;;;18.17;7.22;;;12.80;99.90;;;;;;5062118;27;20474;-76
2023/10/06 02:37:25;;;;;;;17.02;7.25;;;12.80;99.90;;;;;;5086257;28;20035;-76
2023/10/06 02:40:11;;;;;;;16.90;6.75;;;12.70;99.90;;;;;;5084714;28;20036;-76
2023/10/06 02:43:00;;;;;;;12.35;6.65;;;12.80;99.90;;;;;;5089609;28;20042;-76
2023/10/06 02:45:46;;;;;;;18.30;6.78;;;12.70;99.90;;;;;;5082884;28;20088;-76
2023/10/06 02:48:33;;;;;;;13.15;5.95;;;12.80;99.90;;;;;;5088240;28;20043;-75
2023/10/06 02:51:32;;;;;;;15.27;6.00;;;12.80;99.90;;;;;;5077814;28;20082;-76
2023/10/06 02:57:04;;;;;;;13.20;6.07;;;12.80;99.90;;;;;;5082937;28;20131;-75
2023/10/06 02:59:56;;;;;;;16.85;6.13;;;12.70;99.90;;;;;;5074243;28;20376;-75
2023/10/06 03:02:42;;;;;;;14.38;5.95;;;12.70;99.90;;;;;;5085408;28;20380;-75
2023/10/06 03:05:39;;;;;;;12.88;5.90;;;12.70;99.90;;;;;;5079151;28;20573;-75
2023/10/06 03:08:30;;;;;;;12.07;5.18;;;12.70;99.90;;;;;;5058235;28;20059;-75
2023/10/06 03:11:23;;;;;;;14.20;5.43;;;12.70;99.90;;;;;;5075005;28;20364;-75
2023/10/06 03:14:09;;;;;;;15.07;5.35;;;12.70;99.90;;;;;;5075781;28;20383;-75
2023/10/06 03:16:55;;;;;;;12.98;5.55;;;12.60;99.90;;;;;;5071892;28;20044;-75
2023/10/06 03:19:41;;;;;;;15.95;6.47;;;12.70;99.90;;;;;;5095974;27;20455;-75
2023/10/06 03:22:28;;;;;;;11.15;6.00;;;12.60;99.90;;;;;;5078603;28;20044;-75
2023/10/06 03:25:15;;;;;;;12.68;5.85;;;12.60;99.90;;;;;;5117311;27;20040;-75
2023/10/06 03:28:05;;;;;;;15.13;5.90;;;12.60;99.90;;;;;;5077582;28;20047;-75
2023/10/06 03:30:51;;;;;;;13.10;5.88;;;12.70;99.90;;;;;;5078025;28;20126;-75
2023/10/06 03:33:38;;;;;;;13.10;5.57;;;12.70;99.90;;;;;;5072318;27;20140;-75
2023/10/06 03:36:37;;;;;;;15.77;6.20;;;12.70;99.90;;;;;;5065255;28;20058;-75
2023/10/06 03:39:30;;;;;;;17.00;6.47;;;12.70;99.90;;;;;;5073835;27;20360;-75
2023/10/06 03:42:20;;;;;;;15.93;6.25;;;12.70;99.90;;;;;;5085259;28;20130;-75
2023/10/06 03:45:18;;;;;;;11.40;5.75;;;12.70;99.90;;;;;;5085464;28;20043;-75
2023/10/06 03:48:13;;;;;;;14.25;6.00;;;12.60;99.90;;;;;;5084322;28;20456;-75
2023/10/06 03:51:00;;;;;;;17.00;6.35;;;12.60;99.90;;;;;;5099729;28;20131;-75
2023/10/06 03:53:48;;;;;;;12.23;5.78;;;12.60;99.90;;;;;;5097182;28;20043;-75
2023/10/06 03:56:34;;;;;;;14.95;6.68;;;12.50;99.90;;;;;;5072254;28;20212;-75
2023/10/06 03:59:21;;;;;;;16.08;5.97;;;12.50;99.90;;;;;;5071926;28;20376;-75
2023/10/06 04:02:08;;;;;;;13.40;5.35;;;12.40;99.90;;;;;;5068561;28;20054;-75
2023/10/06 04:04:54;;;;;;;14.00;6.07;;;12.40;99.90;;;;;;5079445;28;20051;-75
2023/10/06 04:07:40;;;;;;;14.43;5.70;;;12.40;99.90;;;;;;5064785;28;20448;-75
2023/10/06 04:10:27;;;;;;;14.20;5.90;;;12.40;99.90;;;;;;5085054;28;20080;-75
2023/10/06 04:13:14;;;;;;;14.48;6.63;;;12.40;99.90;;;;;;5057375;28;20469;-75
2023/10/06 04:16:02;;;;;;;12.45;6.22;;;12.40;99.90;;;;;;5089169;28;20058;-75
2023/10/06 04:18:48;;;;;;;12.13;5.28;;;12.50;99.90;;;;;;5083654;28;20032;-75
2023/10/06 04:21:34;;;;;;;16.02;5.90;;;12.40;99.90;;;;;;5078174;28;20043;-75
2023/10/06 04:24:20;;;;;;;11.55;5.00;;;12.50;99.90;;;;;;5099612;28;20353;-75
2023/10/06 04:27:07;;;;;;;11.88;5.28;;;12.40;99.90;;;;;;5095699;28;20070;-75
2023/10/06 04:29:53;;;;;;;14.90;5.70;;;12.40;99.90;;;;;;5070254;28;20039;-75
2023/10/06 04:32:39;;;;;;;12.35;5.25;;;12.40;99.90;;;;;;5102280;28;20035;-75
2023/10/06 04:35:26;;;;;;;11.18;5.75;;;12.40;99.90;;;;;;5082295;28;20061;-75
2023/10/06 04:38:12;;;;;;;12.38;6.65;;;12.40;99.90;;;;;;5084261;28;20043;-75
2023/10/06 04:40:58;;;;;;;13.77;6.65;;;12.40;99.90;;;;;;5063338;28;20032;-75
2023/10/06 04:43:44;;;;;;;16.60;6.60;;;12.40;99.90;;;;;;5082568;28;20036;-75
2023/10/06 04:46:30;;;;;;;15.63;5.40;;;12.30;99.90;;;;;;5072530;28;20450;-75
2023/10/06 04:49:16;;;;;;;16.80;6.20;;;12.30;99.90;;;;;;5078985;28;20349;-75
2023/10/06 04:52:02;;;;;;;13.85;6.45;;;12.20;99.90;;;;;;5085147;28;20039;-76
2023/10/06 04:54:48;;;;;;;18.98;6.75;;;12.30;99.90;;;;;;5076212;28;20054;-76
2023/10/06 04:57:34;;;;;;;15.40;6.25;;;12.20;99.90;;;;;;5069293;28;20050;-75
2023/10/06 05:00:20;;;;;;;10.48;5.93;;;12.20;99.90;;;;;;5061817;28;20452;-75
2023/10/06 05:03:06;;;;;;;12.82;5.85;;;12.30;99.90;;;;;;5082747;28;20035;-75
2023/10/06 05:05:55;;;;;;;15.70;5.97;;;12.30;99.90;;;;;;5071211;27;20108;-75
2023/10/06 05:08:42;;;;;;;17.10;6.35;;;12.30;99.90;;;;;;5101810;28;20490;-75
2023/10/06 05:11:32;;;;;;;13.35;5.70;;;12.30;99.90;;;;;;5072562;27;20057;-75
2023/10/06 05:14:18;;;;;;;15.20;5.97;;;12.30;99.90;;;;;;5081653;28;20134;-75
2023/10/06 05:17:04;;;;;;;11.07;5.70;;;12.20;99.90;;;;;;5093727;28;20047;-75
2023/10/06 05:19:50;;;;;;;10.75;5.28;;;12.20;99.90;;;;;;5067603;27;20061;-75
2023/10/06 05:22:36;;;;;;;13.32;5.95;;;12.30;99.90;;;;;;5066938;28;20049;-75
2023/10/06 05:25:25;;;;;;;16.88;5.80;;;12.30;99.90;;;;;;5087878;27;20463;-76
2023/10/06 05:28:11;;;;;;;14.05;6.47;;;12.30;99.90;;;;;;5085854;28;20434;-75
2023/10/06 05:30:57;;;;;;;10.95;5.60;;;12.30;99.90;;;;;;5078942;28;20043;-75
2023/10/06 05:33:44;;;;;;;16.50;5.82;;;12.40;99.90;;;;;;5110587;27;20043;-75
2023/10/06 05:36:31;;;;;;;14.10;5.75;;;12.40;99.90;;;;;;5092914;28;20075;-76
2023/10/06 05:39:17;;;;;;;10.07;5.13;;;12.30;99.90;;;;;;5085149;27;20046;-75
2023/10/06 05:42:03;;;;;;;16.52;5.07;;;12.30;99.90;;;;;;5065308;28;20036;-75
2023/10/06 05:44:49;;;;;;;11.35;5.20;;;12.30;99.90;;;;;;5084372;27;20488;-75
2023/10/06 05:47:37;;;;;;;13.60;5.57;;;12.30;99.90;;;;;;5080015;27;20044;-75
2023/10/06 05:50:29;;;;;;;11.40;5.00;;;12.20;99.90;;;;;;5080638;28;20043;-76
2023/10/06 05:53:23;;;;;;;16.55;5.70;;;12.20;99.90;;;;;;5101062;27;20046;-75
2023/10/06 05:56:09;;;;;;;14.32;4.40;;;12.30;99.90;;;;;;5082566;28;20381;-75
2023/10/06 05:58:55;;;;;;;13.40;5.05;;;12.30;99.90;;;;;;5085416;27;20039;-75
2023/10/06 06:01:41;;;;;;;14.15;5.45;;;12.30;99.90;;;;;;5065900;28;20050;-75
2023/10/06 06:04:30;;;;;;;12.30;5.13;;;12.40;99.90;;;;;;5081249;27;20130;-75
2023/10/06 06:07:18;;;;;;;15.30;5.05;;;12.40;99.90;;;;;;5077461;28;20442;-76
2023/10/06 06:10:04;;;;;;;12.15;5.28;;;12.40;99.90;;;;;;5099818;28;20484;-75
2023/10/06 06:12:50;;;;;;;14.35;5.78;;;12.50;99.90;;;;;;5086139;27;20522;-75
2023/10/06 06:15:38;;;;;;;12.05;5.50;;;12.50;99.90;;;;;;5091464;28;20047;-75
2023/10/06 06:18:27;;;;;;;14.25;5.55;;;12.50;99.90;;;;;;5086457;27;20145;-75
2023/10/06 06:21:16;;;;;;;11.60;5.95;;;12.50;99.90;;;;;;5079708;28;20028;-75
2023/10/06 06:24:02;;;;;;;11.10;4.32;;;12.50;99.90;;;;;;5068388;28;20054;-75
2023/10/06 06:26:49;;;;;;;10.35;4.43;;;12.50;99.90;;;;;;5080137;27;20146;-77
2023/10/06 06:29:35;;;;;;;11.55;4.72;;;12.50;99.90;;;;;;5087472;28;20487;-76
2023/10/06 06:32:21;;;;;;;15.80;5.00;;;12.60;99.90;;;;;;5083395;27;20133;-77
2023/10/06 06:35:10;;;;;;;16.40;5.03;;;12.60;99.90;;;;;;5096954;27;20471;-78
2023/10/06 06:38:04;;;;;;;15.88;5.20;;;12.70;99.90;;;;;;5072873;27;20031;-76
2023/10/06 06:40:50;;;;;;;14.45;4.28;;;12.70;99.90;;;;;;5081266;27;20043;-75
2023/10/06 06:43:36;;;;;;;11.70;3.80;;;12.70;99.90;;;;;;5094287;28;20544;-75
2023/10/06 06:46:22;;;;;;;12.18;4.32;;;12.80;99.90;;;;;;5061877;27;20055;-75
2023/10/06 06:49:08;;;;;;;11.48;4.05;;;12.80;99.90;;;;;;5107521;27;20420;-75
2023/10/06 06:51:57;;;;;;;12.80;3.95;;;12.80;99.90;;;;;;5099563;27;20039;-75
2023/10/06 06:54:46;;;;;;;9.88;3.78;;;12.80;99.90;;;;;;5065347;28;20553;-75
2023/10/06 06:57:32;;;;;;;12.85;3.75;;;12.80;99.90;;;;;;5079124;27;20070;-75
2023/10/06 07:00:21;;;;;;;8.70;4.07;;;12.90;99.90;;;;;;5097220;27;20039;-75
2023/10/06 07:03:08;;;;;;;9.85;3.78;;;12.90;99.90;;;;;;5067212;28;20523;-75
2023/10/06 07:05:56;;;;;;;10.52;3.80;;;12.90;99.90;;;;;;5082940;27;20047;-74
2023/10/06 07:08:45;;;;;;;9.45;4.45;;;12.90;99.90;;;;;;5079203;28;20051;-75
2023/10/06 07:11:34;;;;;;;12.90;4.20;;;13.00;99.90;;;;;;5068998;27;20039;-75
2023/10/06 07:14:20;;;;;;;12.07;3.60;;;13.00;99.90;;;;;;5084265;28;20066;-75
2023/10/06 07:17:06;;;;;;;9.13;3.67;;;13.10;99.90;;;;;;5063401;28;20088;-75
2023/10/06 07:19:52;;;;;;;17.38;4.20;;;13.10;99.90;;;;;;5062894;27;20043;-75
2023/10/06 07:22:38;;;;;;;13.52;4.95;;;13.20;99.90;;;;;;5112082;27;20043;-75
2023/10/06 07:25:26;;;;;;;12.63;3.50;;;13.30;99.90;;;;;;5086388;27;20039;-75
2023/10/06 07:28:12;;;;;;;12.40;4.20;;;13.30;99.90;;;;;;5088770;27;20471;-75
2023/10/06 07:30:59;;;;;;;14.20;4.32;;;13.40;99.90;;;;;;5096887;27;20154;-75
2023/10/06 07:33:45;;;;;;;11.57;4.40;;;13.50;99.90;;;;;;5076998;27;20043;-75
2023/10/06 07:36:33;;;;;;;15.57;4.40;;;13.60;99.90;;;;;;5084485;28;20408;-75
2023/10/06 07:39:20;;;;;;;12.07;4.15;;;13.70;99.90;;;;;;5087184;27;20042;-75
2023/10/06 07:42:06;;;;;;;15.25;4.53;;;13.80;99.90;;;;;;5078326;28;20040;-75
2023/10/06 07:44:52;;;;;;;14.68;3.75;;;13.80;99.90;;;;;;5082398;27;20047;-75
2023/10/06 07:47:44;;;;;;;12.02;4.00;;;13.80;99.90;;;;;;5091648;28;20403;-75
2023/10/06 07:50:31;;;;;;;9.98;3.40;;;13.80;99.90;;;;;;5077602;28;20101;-75
2023/10/06 07:53:18;;;;;;;11.70;3.80;;;13.90;99.90;;;;;;5089432;27;20132;-75
2023/10/06 07:56:07;;;;;;;10.82;3.55;;;13.90;99.90;;;;;;5096823;28;20164;-75
2023/10/06 07:58:53;;;;;;;9.13;3.22;;;14.00;99.90;;;;;;5058972;27;20472;-75
2023/10/06 08:01:39;;;;;;;10.13;3.40;;;14.00;99.90;;;;;;5063178;28;20047;-75
2023/10/06 08:04:25;;;;;;;10.30;3.17;;;14.00;99.90;;;;;;5094038;28;20040;-75
2023/10/06 08:07:11;;;;;;;9.27;3.20;;;14.10;99.90;;;;;;5074115;28;20036;-75
2023/10/06 08:10:03;;;;;;;12.88;3.20;;;14.10;99.90;;;;;;5065662;28;20051;-75
2023/10/06 08:12:50;;;;;;;8.50;2.65;;;14.10;99.90;;;;;;5098595;28;20088;-75
2023/10/06 08:15:40;;;;;;;8.10;3.43;;;14.10;99.90;;;;;;5066913;28;20079;-75
2023/10/06 08:18:29;;;;;;;9.77;3.20;;;14.20;99.90;;;;;;5078251;28;20047;-75
2023/10/06 08:21:15;;;;;;;9.23;2.70;;;14.30;99.90;;;;;;5062986;28;20040;-75
2023/10/06 08:24:01;;;;;;;7.60;3.28;;;14.20;99.90;;;;;;5079200;28;20082;-75
2023/10/06 08:26:48;;;;;;;10.88;3.25;;;14.30;99.90;;;;;;5089300;28;20112;-75
2023/10/06 08:29:34;;;;;;;10.75;3.38;;;14.30;99.90;;;;;;5069798;28;20059;-74
2023/10/06 08:32:21;;;;;;;15.60;3.50;;;14.40;99.90;;;;;;5114358;28;20042;-75
2023/10/06 08:35:13;;;;;;;8.98;3.30;;;14.40;99.90;;;;;;5082724;28;20051;-75
2023/10/06 08:38:00;;;;;;;9.63;3.75;;;14.40;99.90;;;;;;5071985;28;20031;-75
2023/10/06 08:40:46;;;;;;;12.25;4.05;;;14.40;99.90;;;;;;5072504;28;20105;-75
2023/10/06 08:43:32;;;;;;;10.18;3.33;;;14.50;99.90;;;;;;5065228;28;20464;-77
2023/10/06 08:46:19;;;;;;;9.02;3.17;;;14.50;99.90;;;;;;5102094;27;20371;-77
2023/10/06 08:49:05;;;;;;;11.30;3.75;;;14.50;99.90;;;;;;5074592;28;20043;-77
2023/10/06 08:51:51;;;;;;;12.00;3.60;;;14.50;99.90;;;;;;5098583;27;20043;-77
2023/10/06 08:54:37;;;;;;;11.80;3.90;;;14.60;99.90;;;;;;5066619;28;20055;-77
2023/10/06 08:57:24;;;;;;;10.18;3.30;;;14.60;99.90;;;;;;5096524;28;20444;-77
2023/10/06 09:00:12;;;;;;;11.20;3.60;;;14.70;99.90;;;;;;5064106;27;20035;-77
2023/10/06 09:03:08;;;;;;;12.43;3.60;;;14.80;99.90;;;;;;5086430;28;20372;-77
2023/10/06 09:05:54;;;;;;;13.13;4.20;;;14.90;99.90;;;;;;5089357;27;20039;-77
2023/10/06 09:08:43;;;;;;;12.23;4.20;;;14.90;99.90;;;;;;5067405;28;20051;-77
2023/10/06 09:11:39;;;;;;;10.95;4.50;;;15.00;99.90;;;;;;5072245;27;20096;-77
2023/10/06 09:14:28;;;;;;;10.00;3.78;;;15.10;99.90;;;;;;5085866;28;20059;-77
2023/10/06 09:17:16;;;;;;;13.63;4.63;;;15.20;99.90;;;;;;5072345;27;20486;-77
2023/10/06 09:20:02;;;;;;;11.43;3.55;;;15.30;99.90;;;;;;5100645;28;20036;-77
2023/10/06 09:22:51;;;;;;;8.70;3.20;;;15.40;99.90;;;;;;5082728;28;20341;-77
2023/10/06 09:25:42;;;;;;;7.00;3.70;;;15.50;99.90;;;;;;5080746;27;20044;-77
2023/10/06 09:28:28;;;;;;;10.70;3.58;;;15.50;99.90;;;;;;5086448;28;20706;-77
2023/10/06 09:31:14;;;;;;;12.15;3.13;;;15.60;99.90;;;;;;5075245;27;20520;-77
2023/10/06 09:34:00;;;;;;;9.80;3.15;;;15.80;99.90;;;;;;5061669;28;20050;-77
2023/10/06 09:36:46;;;;;;;8.98;3.58;;;15.90;99.90;;;;;;5069167;28;20476;-77
2023/10/06 09:39:37;;;;;;;9.38;2.90;;;15.90;99.90;;;;;;5078740;27;20028;-77
2023/10/06 09:42:28;;;;;;;7.43;3.10;;;15.90;99.90;;;;;;5101360;28;20039;-77
2023/10/06 09:45:17;;;;;;;11.05;3.50;;;15.90;99.90;;;;;;5076815;27;20035;-75
2023/10/06 09:48:05;;;;;;;7.22;2.58;;;16.10;99.90;;;;;;5066442;28;20075;-75
2023/10/06 09:50:51;;;;;;;7.38;2.97;;;16.10;99.90;;;;;;5083118;27;20040;-77
2023/10/06 09:53:38;;;;;;;8.07;3.28;;;16.20;99.90;;;;;;5072436;28;20047;-77
2023/10/06 09:56:24;;;;;;;6.95;2.95;;;16.20;99.90;;;;;;5095953;28;20043;-77
2023/10/06 09:59:13;;;;;;;8.80;2.78;;;16.30;99.90;;;;;;5079750;27;20039;-77
2023/10/06 10:01:59;;;;;;;7.40;2.88;;;16.30;99.90;;;;;;5085449;28;20046;-77
2023/10/06 10:04:46;;;;;;;8.38;2.70;;;16.30;99.90;;;;;;5085579;27;20042;-77
2023/10/06 10:07:32;;;;;;;6.65;2.45;;;16.50;99.90;;;;;;5096253;28;20068;-78
2023/10/06 10:10:23;;;;;;;7.57;2.28;;;16.50;99.90;;;;;;5083879;27;20235;-77
2023/10/06 10:13:37;;;;;;;12.85;3.22;;;16.40;99.90;;;;;;5060202;28;20109;-77
2023/10/06 10:16:37;;;;;;;10.63;2.85;;;16.40;99.90;;;;;;5092670;27;20060;-77
2023/10/06 10:19:23;;;;;;;10.35;2.88;;;16.30;99.90;;;;;;5110571;27;20031;-77
2023/10/06 10:22:13;;;;;;;8.20;3.15;;;16.20;99.90;;;;;;5099292;28;20043;-77
2023/10/06 10:25:01;;;;;;;6.88;2.33;;;16.10;99.90;;;;;;5078790;28;20039;-77
2023/10/06 10:28:13;;;;;;;8.38;2.60;;;16.10;99.90;;;;;;5094781;28;20065;-77
2023/10/06 10:31:00;;;;;;;6.95;2.50;;;16.00;99.90;;;;;;5086446;28;20349;-77
2023/10/06 10:33:47;;;;;;;10.02;2.97;;;16.10;99.90;;;;;;5071173;28;20130;-77
2023/10/06 10:36:33;;;;;;;7.55;2.78;;;16.10;99.90;;;;;;5083129;27;20039;-78
2023/10/06 10:39:19;;;;;;;7.57;2.58;;;16.10;99.90;;;;;;5083256;28;20032;-78
2023/10/06 10:42:05;;;;;;;9.23;2.50;;;16.20;99.90;;;;;;5096841;28;20043;-77
2023/10/06 10:45:30;;;;;;;9.25;3.00;;;16.20;99.90;;;;;;5090663;27;20038;-77
2023/10/06 10:48:18;;;;;;;9.55;2.67;;;16.30;99.90;;;;;;5075764;28;20468;-77
2023/10/06 10:51:12;;;;;;;8.05;2.53;;;16.30;99.90;;;;;;5081734;28;20069;-77
2023/10/06 10:53:59;;;;;;;7.82;2.35;;;16.30;99.90;;;;;;5071715;27;20540;-77
2023/10/06 10:56:47;;;;;;;7.40;2.33;;;16.40;99.90;;;;;;5066346;28;20044;-77
2023/10/06 11:03:00;;;;;;;6.32;2.28;;;16.80;99.90;;;;;;5106960;27;20490;-77
2023/10/06 11:05:46;;;;;;;7.22;2.35;;;17.00;99.90;;;;;;5085264;27;20047;-77
2023/10/06 11:08:39;;;;;;;6.70;2.40;;;17.20;99.90;;;;;;5079506;28;20039;-78
2023/10/06 11:11:25;;;;;;;7.25;2.78;;;17.40;99.90;;;;;;5066325;27;20036;-77
2023/10/06 11:14:12;;;;;;;6.70;2.55;;;17.60;99.90;;;;;;5080181;28;20445;-77
2023/10/06 11:17:07;;;;;;;7.07;2.00;;;17.50;99.90;;;;;;5078582;28;20055;-77
2023/10/06 11:23:17;;;;;;;7.00;2.30;;;17.60;99.90;;;;;;5084951;27;20090;-78
2023/10/06 11:26:06;;;;;;;6.53;2.22;;;17.90;99.90;;;;;;5106299;28;20473;-79
2023/10/06 11:28:52;;;;;;;8.63;2.70;;;18.20;99.90;;;;;;5099353;28;20038;-78
2023/10/06 11:31:38;;;;;;;10.13;2.92;;;18.50;99.90;;;;;;5061108;28;20452;-78
2023/10/06 11:34:24;;;;;;;5.85;2.13;;;18.60;99.90;;;;;;5064828;28;20091;-77
2023/10/06 11:37:11;;;;;;;6.35;1.95;;;18.60;99.90;;;;;;5103590;27;20039;-77
2023/10/06 11:39:57;;;;;;;8.90;2.20;;;18.50;99.90;;;;;;5090644;28;20039;-77
2023/10/06 11:42:43;;;;;;;4.90;2.15;;;18.20;99.90;;;;;;5097370;27;20475;-77
2023/10/06 11:45:31;;;;;;;10.10;2.15;;;18.00;99.90;;;;;;5059571;27;20043;-78
2023/10/06 11:48:24;;;;;;;4.38;1.90;;;17.90;99.90;;;;;;5098959;28;20047;-78
2023/10/06 11:51:12;;;;;;;6.07;2.10;;;17.90;99.90;;;;;;5083266;28;20040;-77
2023/10/06 11:53:59;;;;;;;;;;;17.80;99.90;;;;;;5109172;28;20488;-77
2023/10/06 11:56:49;;;;;;;7.00;2.38;;;17.70;99.90;;;;;;5100574;28;20462;-76
2023/10/06 11:59:35;;;;;;;8.43;2.47;;;17.70;99.90;;;;;;5084950;28;20067;-77
2023/10/06 12:02:21;;;;;;;5.07;2.10;;;17.70;99.90;;;;;;5067084;28;20043;-78
2023/10/06 12:05:11;;;;;;;6.57;2.38;;;17.70;99.90;;;;;;5075284;28;20139;-77
2023/10/06 12:08:03;;;;;;;5.50;1.90;;;17.90;99.90;;;;;;5084924;28;20119;-77
2023/10/06 12:10:50;;;;;;;5.53;2.00;;;18.00;99.90;;;;;;5055081;28;20471;-78
2023/10/06 12:13:37;;;;;;;6.22;1.98;;;18.00;99.90;;;;;;5085795;28;20053;-77
2023/10/06 12:16:23;;;;;;;4.18;1.58;;;18.00;99.90;;;;;;5086713;27;20593;-77
2023/10/06 12:19:11;;;;;;;4.55;1.73;;;18.00;99.90;;;;;;5085100;28;20061;-77
2023/10/06 12:21:59;;;;;;;;;;;18.00;99.90;;;;;;5080422;28;20032;-76
2023/10/06 12:24:45;;;;;;;6.03;1.88;;;18.00;99.90;;;;;;5080145;28;19947;-77
2023/10/06 12:27:31;;;;;;;6.68;2.20;;;18.10;99.90;;;;;;5088418;28;20055;-76
2023/10/06 12:30:17;;;;;;;4.57;2.20;;;18.10;99.90;;;;;;5103931;27;20039;-76
2023/10/06 12:33:03;;;;;;;5.55;1.77;;;18.30;99.90;;;;;;5079552;28;20466;-76
2023/10/06 12:35:52;;;;;;;6.20;2.00;;;18.50;99.90;;;;;;5068530;28;20364;-78
2023/10/06 12:38:42;;;;;;;4.15;1.92;;;18.70;99.90;;;;;;5083153;28;20146;-78
2023/10/06 12:41:27;;;;;;;4.57;1.85;;;18.80;99.90;;;;;;5069432;28;20036;-76
2023/10/06 12:44:14;;;;;;;6.20;2.13;;;18.80;99.90;;;;;;5072969;27;20046;-77
2023/10/06 12:47:03;;;;;;;8.88;2.08;;;19.20;99.90;;;;;;5070527;28;20040;-79
2023/10/06 12:49:49;;;;;;;6.05;1.80;;;19.50;99.70;;;;;;5091188;27;20050;-79
2023/10/06 12:52:36;;;;;;;6.20;2.22;;;19.80;99.10;;;;;;5101778;28;20415;-79
2023/10/06 12:55:24;;;;;;;5.57;1.75;;;19.90;98.40;;;;;;5084446;28;20108;-78
2023/10/06 12:58:14;;;;;;;5.32;2.00;;;19.90;97.60;;;;;;5064869;28;20333;-78
2023/10/06 13:01:00;;;;;;;5.30;2.03;;;20.10;97.80;;;;;;5088152;28;20031;-78
2023/10/06 13:03:47;;;;;;;6.45;1.75;;;20.30;96.40;;;;;;5089585;27;20066;-77
2023/10/06 13:06:32;;;;;;;6.70;2.03;;;20.30;96.00;;;;;;5089084;28;20134;-78
2023/10/06 13:09:21;;;;;;;5.07;2.15;;;20.60;96.80;;;;;;5073512;28;20047;-80
2023/10/06 13:12:08;;;;;;;5.78;2.20;;;20.70;95.90;;;;;;5075479;28;20039;-77
2023/10/06 13:14:54;;;;;;;5.30;2.00;;;20.60;95.60;;;;;;5079740;28;20044;-77
2023/10/06 13:17:41;;;;;;;7.15;2.15;;;20.40;95.90;;;;;;5072878;27;20036;-77
2023/10/06 13:20:26;;;;;;;5.10;2.33;;;20.30;96.50;;;;;;5067728;28;20059;-75
2023/10/06 13:23:12;;;;;;;5.47;2.20;;;20.40;96.70;;;;;;5084995;27;20758;-75
2023/10/06 13:25:59;;;;;;;6.72;2.20;;;20.20;96.90;;;;;;5080499;28;20168;-77
2023/10/06 13:28:45;;;;;;;4.65;1.92;;;20.00;96.10;;;;;;5069600;28;20040;-75
2023/10/06 13:31:31;;;;;;;6.82;2.08;;;20.00;97.00;;;;;;5077790;27;20110;-76
2023/10/06 13:34:17;;;;;;;4.70;1.70;;;19.90;97.30;;;;;;5115009;27;20055;-77
2023/10/06 13:37:03;;;;;;;8.68;2.13;;;19.80;97.20;;;;;;5088747;27;20039;-77
2023/10/06 13:39:49;;;;;;;5.40;2.10;;;19.70;97.60;;;;;;5084743;28;20511;-77
2023/10/06 13:42:41;;;;;;;4.97;2.20;;;19.60;97.60;;;;;;5082591;28;20410;-77
2023/10/06 13:45:29;;;;;;;5.65;2.25;;;19.50;97.60;;;;;;5093378;27;20043;-77
2023/10/06 13:48:22;;;;;;;8.50;3.10;;;19.40;98.10;;;;;;5099799;28;20040;-75
2023/10/06 13:51:09;;;;;;;6.50;2.10;;;19.40;98.10;;;;;;5065107;27;20360;-75
2023/10/06 13:53:55;;;;;;;5.65;1.88;;;19.50;98.40;;;;;;5085697;28;20040;-76
2023/10/06 13:56:41;;;;;;;5.72;2.00;;;19.50;98.50;;;;;;5101735;27;20047;-77
2023/10/06 13:59:28;;;;;;;5.07;1.90;;;19.50;98.50;;;;;;5064840;28;20046;-77
2023/10/06 14:02:14;;;;;;;6.40;1.73;;;19.60;98.80;;;;;;5073103;28;20067;-76
2023/10/06 14:05:01;;;;;;;4.93;1.92;;;19.60;98.70;;;;;;5060699;28;20039;-76
2023/10/06 14:07:48;;;;;;;7.55;2.55;;;19.40;98.60;;;;;;5072066;28;20050;-76
2023/10/06 14:10:37;;;;;;;7.78;2.30;;;19.40;98.80;;;;;;5088185;27;20039;-77
2023/10/06 14:13:24;;;;;;;6.90;2.00;;;19.40;99.30;;;;;;5078891;28;20040;-77
2023/10/06 14:16:10;;;;;;;5.70;2.05;;;19.30;99.20;;;;;;5085673;27;20169;-76
2023/10/06 14:18:59;;;;;;;5.32;2.00;;;19.30;99.50;;;;;;5058640;28;20039;-77
2023/10/06 14:21:45;;;;;;;5.57;1.92;;;19.10;99.90;;;;;;5095317;28;20621;-77
2023/10/06 14:24:34;;;;;;;4.72;1.88;;;19.10;99.90;;;;;;5071078;27;20035;-76
2023/10/06 14:27:20;;;;;;;6.63;1.85;;;19.00;99.90;;;;;;5078846;28;20468;-77
2023/10/06 14:30:09;;;;;;;3.78;2.03;;;18.90;99.90;;;;;;5070367;27;20074;-77
2023/10/06 14:33:07;;;;;;;8.77;2.40;;;18.90;99.90;;;;;;5079453;28;20710;-75
2023/10/06 14:47:43;;;;;;;3.80;1.70;;;19.10;99.90;;;;;;5108108;27;20043;-76
2023/10/06 14:50:29;;;;;;;5.18;2.30;;;19.10;99.90;;;;;;5107911;27;20410;-77